createdAt,value
2018-05-27T00:00:36.831Z,86.60
2018-05-27T00:01:37.053Z,87.55
2018-05-27T00:02:37.260Z,87.37
2018-05-27T00:03:37.448Z,87.46
2018-05-27T00:04:37.658Z,87.27
2018-05-27T00:05:37.856Z,88.03
2018-05-27T00:06:38.068Z,87.27
2018-05-27T00:07:38.282Z,87.37
2018-05-27T00:08:38.498Z,87.74
2018-05-27T00:09:38.709Z,87.74
2018-05-27T00:10:38.996Z,87.37
2018-05-27T00:11:39.057Z,87.70
2018-05-27T00:12:39.258Z,87.80
2018-05-27T00:13:39.453Z,87.99
2018-05-27T00:14:39.657Z,88.18
2018-05-27T00:15:39.842Z,87.32
2018-05-27T00:16:40.058Z,88.09
2018-05-27T00:17:40.258Z,87.90
2018-05-27T00:18:40.468Z,87.41
2018-05-27T00:19:40.661Z,87.32
2018-05-27T00:20:40.866Z,87.80
2018-05-27T00:21:41.071Z,88.37
2018-05-27T00:22:41.271Z,88.28
2018-05-27T00:23:41.483Z,88.28
2018-05-27T00:24:41.654Z,87.80
2018-05-27T00:25:41.864Z,87.61
2018-05-27T00:26:42.060Z,87.41
2018-05-27T00:27:42.255Z,87.90
2018-05-27T00:28:42.460Z,87.80
2018-05-27T00:29:42.648Z,87.80
2018-05-27T00:30:42.864Z,87.80
2018-05-27T00:31:43.051Z,87.41
2018-05-27T00:32:43.263Z,87.70
2018-05-27T00:33:43.474Z,87.70
2018-05-27T00:34:43.680Z,87.03
2018-05-27T00:35:43.881Z,87.32
2018-05-27T00:36:44.084Z,87.99
2018-05-27T00:37:44.272Z,87.03
2018-05-27T00:38:44.472Z,87.13
2018-05-27T00:39:44.684Z,86.74
2018-05-27T00:40:44.899Z,87.41
2018-05-27T00:41:45.084Z,87.90
2018-05-27T00:42:45.280Z,87.80
2018-05-27T00:43:45.480Z,88.71
2018-05-27T00:44:45.701Z,89.48
2018-05-27T00:45:45.891Z,89.86
2018-05-27T00:46:46.097Z,91.01
2018-05-27T00:47:46.309Z,91.63
2018-05-27T00:48:46.499Z,92.11
2018-05-27T00:49:46.705Z,91.92
2018-05-27T00:50:46.997Z,92.69
2018-05-27T00:53:19.019Z,91.49
2018-05-27T00:54:19.189Z,91.77
2018-05-27T00:55:19.411Z,91.01
2018-05-27T00:56:19.597Z,90.05
2018-05-27T00:57:19.807Z,89.95
2018-05-27T00:58:20.020Z,89.95
2018-05-27T00:59:20.224Z,89.76
2018-05-27T01:00:20.409Z,89.76
2018-05-27T01:02:52.682Z,89.29
2018-05-27T01:03:52.860Z,88.62
2018-05-27T01:04:53.066Z,88.62
2018-05-27T01:05:53.283Z,88.71
2018-05-27T01:06:53.574Z,88.23
2018-05-27T01:07:53.639Z,87.95
2018-05-27T01:08:53.820Z,87.66
2018-05-27T01:09:54.009Z,87.27
2018-05-27T01:10:54.213Z,87.47
2018-05-27T01:11:54.400Z,87.70
2018-05-27T01:12:54.616Z,87.27
2018-05-27T01:13:54.893Z,88.43
2018-05-27T01:14:54.958Z,87.76
2018-05-27T01:15:55.158Z,87.95
2018-05-27T01:16:55.400Z,88.13
2018-05-27T01:17:55.610Z,88.43
2018-05-27T01:18:55.820Z,88.43
2018-05-27T01:19:56.016Z,87.27
2018-05-27T01:20:56.202Z,87.56
2018-05-27T01:21:56.394Z,87.37
2018-05-27T01:22:56.575Z,87.56
2018-05-27T01:23:56.776Z,87.85
2018-05-27T01:24:56.968Z,87.27
2018-05-27T01:25:57.181Z,87.95
2018-05-27T01:26:57.400Z,87.76
2018-05-27T01:27:57.610Z,87.47
2018-05-27T01:28:57.810Z,87.56
2018-05-27T01:29:58.018Z,88.23
2018-05-27T01:30:58.215Z,88.33
2018-05-27T01:31:58.427Z,88.33
2018-05-27T01:32:58.627Z,88.23
2018-05-27T01:33:58.841Z,88.62
2018-05-27T01:34:59.055Z,88.81
2018-05-27T01:37:31.196Z,89.00
2018-05-27T01:38:31.373Z,89.00
2018-05-27T01:39:31.580Z,89.38
2018-05-27T01:40:31.793Z,89.19
2018-05-27T01:41:31.974Z,89.86
2018-05-27T01:42:32.171Z,89.95
2018-05-27T01:45:04.317Z,90.01
2018-05-27T01:46:04.495Z,89.81
2018-05-27T01:47:04.703Z,90.58
2018-05-27T01:48:04.895Z,90.58
2018-05-27T01:49:05.102Z,90.77
2018-05-27T01:50:05.298Z,91.63
2018-05-27T01:51:05.522Z,92.54
2018-05-27T01:52:05.720Z,92.74
2018-05-27T01:53:05.933Z,93.21
2018-05-27T01:54:06.144Z,93.02
2018-05-27T01:55:06.313Z,93.60
2018-05-27T01:56:06.502Z,94.07
2018-05-27T01:57:06.716Z,94.36
2018-05-27T01:58:06.922Z,94.65
2018-05-27T01:59:07.121Z,94.65
2018-05-27T02:00:07.327Z,94.93
2018-05-27T02:01:07.513Z,94.93
2018-05-27T02:02:07.726Z,94.93
2018-05-27T02:03:07.910Z,95.03
2018-05-27T02:04:08.124Z,94.07
2018-05-27T02:05:08.321Z,93.88
2018-05-27T02:06:08.536Z,93.98
2018-05-27T02:07:08.723Z,93.98
2018-05-27T02:08:08.945Z,93.40
2018-05-27T02:09:09.151Z,93.40
2018-05-27T02:10:09.360Z,93.02
2018-05-27T02:11:09.571Z,93.40
2018-05-27T02:12:09.777Z,93.12
2018-05-27T02:13:09.964Z,93.02
2018-05-27T02:14:10.160Z,93.50
2018-05-27T02:15:10.356Z,92.83
2018-05-27T02:16:10.562Z,92.93
2018-05-27T02:17:10.875Z,92.83
2018-05-27T02:18:10.946Z,93.31
2018-05-27T02:19:11.143Z,93.21
2018-05-27T02:20:11.331Z,93.02
2018-05-27T02:21:11.533Z,93.79
2018-05-27T02:22:11.739Z,93.88
2018-05-27T02:23:11.931Z,95.03
2018-05-27T02:24:12.133Z,94.89
2018-05-27T02:25:12.348Z,94.84
2018-05-27T02:26:12.539Z,94.55
2018-05-27T02:27:12.745Z,95.07
2018-05-27T02:28:12.926Z,95.17
2018-05-27T02:29:13.134Z,95.56
2018-05-27T02:30:13.322Z,95.84
2018-05-27T02:31:13.581Z,95.65
2018-05-27T02:32:13.786Z,96.51
2018-05-27T02:33:13.982Z,96.51
2018-05-27T02:34:14.173Z,96.51
2018-05-27T02:35:14.386Z,96.32
2018-05-27T02:36:14.580Z,96.32
2018-05-27T02:37:14.767Z,96.80
2018-05-27T02:38:14.952Z,96.51
2018-05-27T02:39:15.151Z,96.42
2018-05-27T02:40:15.404Z,96.42
2018-05-27T02:41:15.552Z,96.80
2018-05-27T02:42:15.746Z,96.51
2018-05-27T02:43:15.954Z,95.75
2018-05-27T02:44:16.167Z,95.94
2018-05-27T02:46:48.307Z,95.27
2018-05-27T02:47:48.481Z,95.07
2018-05-27T02:48:48.682Z,94.98
2018-05-27T02:49:48.873Z,95.46
2018-05-27T02:50:49.073Z,94.93
2018-05-27T02:51:49.291Z,94.84
2018-05-27T02:52:49.475Z,94.74
2018-05-27T02:53:49.682Z,94.46
2018-05-27T02:54:49.864Z,93.98
2018-05-27T02:55:50.062Z,94.07
2018-05-27T02:56:50.262Z,93.21
2018-05-27T02:57:50.452Z,93.31
2018-05-27T02:58:50.657Z,93.50
2018-05-27T02:59:50.848Z,93.12
2018-05-27T03:00:51.053Z,93.50
2018-05-27T03:03:23.187Z,93.31
2018-05-27T03:04:23.360Z,93.84
2018-05-27T03:05:23.625Z,93.55
2018-05-27T03:06:23.705Z,94.22
2018-05-27T03:07:23.904Z,94.22
2018-05-27T03:08:24.127Z,93.69
2018-05-27T03:09:24.310Z,93.31
2018-05-27T03:10:24.519Z,93.21
2018-05-27T03:11:24.703Z,93.31
2018-05-27T03:12:25.006Z,93.40
2018-05-27T03:13:25.150Z,93.16
2018-05-27T03:14:25.344Z,93.60
2018-05-27T03:15:25.533Z,93.65
2018-05-27T03:16:25.732Z,94.31
2018-05-27T03:17:25.922Z,94.70
2018-05-27T03:18:26.133Z,94.79
2018-05-27T03:19:26.323Z,94.70
2018-05-27T03:20:26.509Z,95.07
2018-05-27T03:21:26.707Z,94.51
2018-05-27T03:22:26.885Z,95.07
2018-05-27T03:23:27.082Z,94.70
2018-05-27T03:24:27.295Z,94.60
2018-05-27T03:25:27.494Z,94.36
2018-05-27T03:26:27.704Z,93.36
2018-05-27T03:27:27.887Z,93.16
2018-05-27T03:28:28.085Z,93.21
2018-05-27T03:31:00.223Z,92.45
2018-05-27T03:32:00.408Z,92.16
2018-05-27T03:33:00.584Z,92.25
2018-05-27T03:34:00.792Z,92.64
2018-05-27T03:35:00.988Z,91.88
2018-05-27T03:36:01.250Z,91.49
2018-05-27T03:37:01.337Z,91.20
2018-05-27T03:38:01.531Z,91.68
2018-05-27T03:39:01.732Z,91.68
2018-05-27T03:40:01.944Z,90.73
2018-05-27T03:41:02.139Z,90.92
2018-05-27T03:42:02.355Z,90.44
2018-05-27T03:43:02.544Z,90.44
2018-05-27T03:44:02.741Z,90.16
2018-05-27T03:45:02.938Z,90.06
2018-05-27T03:46:03.109Z,90.20
2018-05-27T03:47:03.303Z,89.72
2018-05-27T03:48:03.511Z,89.81
2018-05-27T03:49:03.711Z,90.30
2018-05-27T03:50:03.911Z,90.44
2018-05-27T03:51:04.107Z,90.53
2018-05-27T03:52:04.296Z,91.11
2018-05-27T03:53:04.484Z,91.49
2018-05-27T03:54:04.672Z,91.59
2018-05-27T03:55:04.861Z,91.49
2018-05-27T03:56:05.080Z,91.97
2018-05-27T03:57:05.278Z,91.59
2018-05-27T03:58:05.488Z,92.07
2018-05-27T04:00:37.872Z,92.83
2018-05-27T04:01:37.799Z,92.59
2018-05-27T04:02:37.984Z,92.79
2018-05-27T04:03:38.187Z,92.93
2018-05-27T04:04:38.385Z,93.36
2018-05-27T04:05:38.600Z,93.07
2018-05-27T04:06:38.790Z,92.97
2018-05-27T04:07:38.976Z,93.36
2018-05-27T04:08:39.183Z,94.12
2018-05-27T04:09:39.392Z,93.84
2018-05-27T04:10:39.596Z,93.65
2018-05-27T04:11:39.786Z,93.45
2018-05-27T04:12:39.968Z,93.40
2018-05-27T04:13:40.154Z,92.74
2018-05-27T04:16:11.978Z,91.88
2018-05-27T04:17:12.165Z,90.67
2018-05-27T04:18:12.343Z,89.00
2018-05-27T04:19:12.533Z,86.94
2018-05-27T04:20:12.743Z,84.97
2018-05-27T04:21:12.938Z,84.01
2018-05-27T04:22:13.125Z,83.25
2018-05-27T04:23:13.326Z,82.71
2018-05-27T04:24:13.527Z,82.62
2018-05-27T04:25:13.717Z,82.04
2018-05-27T04:26:13.904Z,81.56
2018-05-27T04:27:14.097Z,80.83
2018-05-27T04:28:14.297Z,80.35
2018-05-27T04:29:14.489Z,79.49
2018-05-27T04:30:14.696Z,79.97
2018-05-27T04:31:14.911Z,79.97
2018-05-27T04:32:15.122Z,80.35
2018-05-27T04:33:15.326Z,80.03
2018-05-27T04:34:15.519Z,80.70
2018-05-27T04:35:15.726Z,80.51
2018-05-27T04:36:15.907Z,80.60
2018-05-27T04:37:16.113Z,80.60
2018-05-27T04:38:16.307Z,80.55
2018-05-27T04:39:16.512Z,81.56
2018-05-27T04:40:16.724Z,80.93
2018-05-27T04:41:16.929Z,80.35
2018-05-27T04:42:17.143Z,80.64
2018-05-27T04:43:17.352Z,80.55
2018-05-27T04:45:49.486Z,79.97
2018-05-27T04:46:49.669Z,79.63
2018-05-27T04:47:49.853Z,79.72
2018-05-27T04:48:50.053Z,79.78
2018-05-27T04:49:50.267Z,79.68
2018-05-27T04:50:50.474Z,80.11
2018-05-27T04:51:50.664Z,80.01
2018-05-27T04:52:50.871Z,79.24
2018-05-27T04:53:51.099Z,78.61
2018-05-27T04:54:51.305Z,77.84
2018-05-27T04:55:51.521Z,78.70
2018-05-27T04:56:51.732Z,77.75
2018-05-27T04:57:51.926Z,76.64
2018-05-27T04:58:52.116Z,76.09
2018-05-27T04:59:52.307Z,74.94
2018-05-27T05:00:52.518Z,75.04
2018-05-27T05:01:52.708Z,75.57
2018-05-27T05:02:52.912Z,74.55
2018-05-27T05:03:53.112Z,73.35
2018-05-27T05:04:53.340Z,72.13
2018-05-27T05:05:53.551Z,69.85
2018-05-27T05:06:53.745Z,69.38
2018-05-27T05:07:53.962Z,67.33
2018-05-27T05:08:54.174Z,66.94
2018-05-27T05:09:54.383Z,66.11
2018-05-27T05:10:54.585Z,64.79
2018-05-27T05:11:54.796Z,62.60
2018-05-27T05:12:55.070Z,62.28
2018-05-27T05:13:55.166Z,62.25
2018-05-27T05:14:55.406Z,61.57
2018-05-27T05:15:55.573Z,60.06
2018-05-27T05:16:55.789Z,60.64
2018-05-27T05:17:55.983Z,60.22
2018-05-27T05:18:56.197Z,60.35
2018-05-27T05:19:56.389Z,59.00
2018-05-27T05:20:56.586Z,58.45
2018-05-27T05:21:56.802Z,57.87
2018-05-27T05:22:56.989Z,58.35
2018-05-27T05:23:57.188Z,57.87
2018-05-27T05:26:29.057Z,58.73
2018-05-27T05:27:29.247Z,58.76
2018-05-27T05:28:29.486Z,58.57
2018-05-27T05:29:29.690Z,58.18
2018-05-27T05:30:29.890Z,57.51
2018-05-27T05:31:30.082Z,57.60
2018-05-27T05:32:30.294Z,58.64
2018-05-27T05:33:30.504Z,61.60
2018-05-27T05:34:30.710Z,63.47
2018-05-27T05:35:30.927Z,63.82
2018-05-27T05:36:31.120Z,65.11
2018-05-27T05:37:31.330Z,66.42
2018-05-27T05:38:31.537Z,68.41
2018-05-27T05:39:31.746Z,69.57
2018-05-27T05:40:31.953Z,70.01
2018-05-27T05:41:32.167Z,71.17
2018-05-27T05:42:32.363Z,70.88
2018-05-27T05:43:32.559Z,72.52
2018-05-27T05:44:32.759Z,72.58
2018-05-27T05:45:32.976Z,73.79
2018-05-27T05:46:33.189Z,74.37
2018-05-27T05:47:33.396Z,76.34
2018-05-27T05:48:33.614Z,78.13
2018-05-27T05:49:33.802Z,78.86
2018-05-27T05:50:34.006Z,79.72
2018-05-27T05:51:34.211Z,79.63
2018-05-27T05:52:34.413Z,80.30
2018-05-27T05:53:34.615Z,80.58
2018-05-27T05:54:34.821Z,80.87
2018-05-27T05:55:35.011Z,81.35
2018-05-27T05:56:35.212Z,81.84
2018-05-27T05:57:35.429Z,81.64
2018-05-27T05:58:35.647Z,80.78
2018-05-27T05:59:35.857Z,81.16
2018-05-27T06:00:36.049Z,80.82
2018-05-27T06:01:36.265Z,79.82
2018-05-27T06:02:36.472Z,80.53
2018-05-27T06:03:36.673Z,81.78
2018-05-27T06:06:08.832Z,75.88
2018-05-27T06:07:09.016Z,72.30
2018-05-27T06:08:09.223Z,71.34
2018-05-27T06:09:09.445Z,69.48
2018-05-27T06:10:09.660Z,70.31
2018-05-27T06:11:09.855Z,70.86
2018-05-27T06:12:10.058Z,71.01
2018-05-27T06:13:10.256Z,72.11
2018-05-27T06:14:10.455Z,70.35
2018-05-27T06:15:10.657Z,67.23
2018-05-27T06:16:10.859Z,65.53
2018-05-27T06:17:11.063Z,65.17
2018-05-27T06:18:11.274Z,63.66
2018-05-27T06:19:11.499Z,61.57
2018-05-27T06:20:11.694Z,62.66
2018-05-27T06:21:11.889Z,61.43
2018-05-27T06:22:12.111Z,59.00
2018-05-27T06:23:12.330Z,56.03
2018-05-27T06:24:12.546Z,55.96
2018-05-27T06:25:12.760Z,55.42
2018-05-27T06:26:12.964Z,56.54
2018-05-27T06:27:13.173Z,56.05
2018-05-27T06:28:13.371Z,53.95
2018-05-27T06:29:13.584Z,52.35
2018-05-27T06:30:13.800Z,51.45
2018-05-27T06:31:14.011Z,51.55
2018-05-27T06:32:14.216Z,51.06
2018-05-27T06:33:14.414Z,52.13
2018-05-27T06:34:14.638Z,52.95
2018-05-27T06:35:14.861Z,54.38
2018-05-27T06:36:15.077Z,55.42
2018-05-27T06:37:15.269Z,56.92
2018-05-27T06:38:15.583Z,56.04
2018-05-27T06:39:15.666Z,58.82
2018-05-27T06:40:15.886Z,55.88
2018-05-27T06:41:16.085Z,54.86
2018-05-27T06:42:16.279Z,54.67
2018-05-27T06:43:16.498Z,55.54
2018-05-27T06:44:16.718Z,55.06
2018-05-27T06:45:16.915Z,56.18
2018-05-27T06:46:17.131Z,53.83
2018-05-27T06:47:17.329Z,54.64
2018-05-27T06:48:17.559Z,54.86
2018-05-27T06:49:17.761Z,54.82
2018-05-27T06:50:17.970Z,53.17
2018-05-27T06:51:18.215Z,55.58
2018-05-27T06:52:18.393Z,56.00
2018-05-27T06:53:18.615Z,55.44
2018-05-27T06:54:18.850Z,53.19
2018-05-27T06:55:19.051Z,53.37
2018-05-27T06:56:19.253Z,53.31
2018-05-27T06:57:19.461Z,53.37
2018-05-27T06:59:51.676Z,51.89
2018-05-27T07:00:51.864Z,51.91
2018-05-27T07:01:52.063Z,52.56
2018-05-27T07:02:52.293Z,52.22
2018-05-27T07:03:52.504Z,53.53
2018-05-27T07:04:52.834Z,53.94
2018-05-27T07:05:52.926Z,54.11
2018-05-27T07:06:53.119Z,56.43
2018-05-27T07:07:53.350Z,55.53
2018-05-27T07:08:53.552Z,55.82
2018-05-27T07:09:53.773Z,58.34
2018-05-27T07:10:53.991Z,55.20
2018-05-27T07:11:54.187Z,54.06
2018-05-27T07:12:54.391Z,54.49
2018-05-27T07:13:54.609Z,54.23
2018-05-27T07:14:54.905Z,53.91
2018-05-27T07:15:54.973Z,55.20
2018-05-27T07:16:55.203Z,53.02
2018-05-27T07:17:55.428Z,53.94
2018-05-27T07:18:55.634Z,53.22
2018-05-27T07:19:55.849Z,53.19
2018-05-27T07:20:56.048Z,53.29
2018-05-27T07:21:56.244Z,53.12
2018-05-27T07:22:56.444Z,52.95
2018-05-27T07:23:56.645Z,51.43
2018-05-27T07:24:56.864Z,49.85
2018-05-27T07:25:57.193Z,48.03
2018-05-27T07:26:57.312Z,48.22
2018-05-27T07:27:57.508Z,46.61
2018-05-27T07:28:57.721Z,46.18
2018-05-27T07:29:57.915Z,46.20
2018-05-27T07:30:58.137Z,46.08
2018-05-27T07:31:58.355Z,46.13
2018-05-27T07:32:58.601Z,46.93
2018-05-27T07:33:58.825Z,45.84
2018-05-27T07:34:59.047Z,46.03
2018-05-27T07:35:59.249Z,47.59
2018-05-27T07:36:59.447Z,46.67
2018-05-27T07:37:59.667Z,46.05
2018-05-27T07:38:59.919Z,46.11
2018-05-27T07:40:00.130Z,48.80
2018-05-27T07:41:00.357Z,49.68
2018-05-27T07:42:00.556Z,49.71
2018-05-27T07:43:00.772Z,51.26
2018-05-27T07:44:00.973Z,50.38
2018-05-27T07:45:01.201Z,51.31
2018-05-27T07:46:01.403Z,53.24
2018-05-27T07:47:01.628Z,51.14
2018-05-27T07:48:01.832Z,50.43
2018-05-27T07:49:02.068Z,53.41
2018-05-27T07:50:02.279Z,53.73
2018-05-27T07:51:02.468Z,53.73
2018-05-27T07:53:34.626Z,52.54
2018-05-27T07:54:34.829Z,55.11
2018-05-27T07:55:35.153Z,55.28
2018-05-27T07:56:35.239Z,53.70
2018-05-27T07:57:35.445Z,54.64
2018-05-27T07:58:35.668Z,56.13
2018-05-27T07:59:35.905Z,56.03
2018-05-27T08:00:36.103Z,55.40
2018-05-27T08:03:11.638Z,58.17
2018-05-27T08:04:08.437Z,57.81
2018-05-27T08:05:08.637Z,58.65
2018-05-27T08:06:08.858Z,57.69
2018-05-27T08:07:09.090Z,58.11
2018-05-27T08:08:09.291Z,59.21
2018-05-27T08:09:09.496Z,57.92
2018-05-27T08:10:09.718Z,58.50
2018-05-27T08:11:09.906Z,60.57
2018-05-27T08:12:10.099Z,60.21
2018-05-27T08:13:10.291Z,63.14
2018-05-27T08:14:10.507Z,61.66
2018-05-27T08:15:10.717Z,62.73
2018-05-27T08:16:10.924Z,61.11
2018-05-27T08:17:11.150Z,60.72
2018-05-27T08:18:11.354Z,62.18
2018-05-27T08:19:11.555Z,62.08
2018-05-27T08:20:11.765Z,60.63
2018-05-27T08:21:11.980Z,61.24
2018-05-27T08:22:12.182Z,59.76
2018-05-27T08:23:12.374Z,60.17
2018-05-27T08:24:12.604Z,61.66
2018-05-27T08:25:12.819Z,60.50
2018-05-27T08:26:13.032Z,59.79
2018-05-27T08:27:13.233Z,60.75
2018-05-27T08:28:13.447Z,60.63
2018-05-27T08:29:13.656Z,60.66
2018-05-27T08:30:13.864Z,59.63
2018-05-27T08:31:14.094Z,58.75
2018-05-27T08:32:14.299Z,59.43
2018-05-27T08:33:14.508Z,59.94
2018-05-27T08:34:14.712Z,59.94
2018-05-27T08:35:14.927Z,58.37
2018-05-27T08:36:15.135Z,57.94
2018-05-27T08:37:15.330Z,58.49
2018-05-27T08:38:15.533Z,57.91
2018-05-27T08:39:15.741Z,58.23
2018-05-27T08:40:15.949Z,56.03
2018-05-27T08:41:16.158Z,55.13
2018-05-27T08:42:16.364Z,57.39
2018-05-27T08:43:16.565Z,57.48
2018-05-27T08:44:16.789Z,55.13
2018-05-27T08:45:16.986Z,55.47
2018-05-27T08:46:17.213Z,55.43
2018-05-27T08:48:49.243Z,55.43
2018-05-27T08:49:49.429Z,56.79
2018-05-27T08:50:49.649Z,52.57
2018-05-27T08:51:49.844Z,51.77
2018-05-27T08:52:50.041Z,53.85
2018-05-27T08:53:50.267Z,53.66
2018-05-27T08:54:50.455Z,53.66
2018-05-27T08:55:50.648Z,53.73
2018-05-27T08:56:50.865Z,53.10
2018-05-27T08:57:51.082Z,53.32
2018-05-27T08:58:51.293Z,50.21
2018-05-27T08:59:51.576Z,50.12
2018-05-27T09:00:51.659Z,48.19
2018-05-27T09:01:51.881Z,48.07
2018-05-27T09:02:52.078Z,49.02
2018-05-27T09:03:52.284Z,48.25
2018-05-27T09:06:24.534Z,49.82
2018-05-27T09:07:24.715Z,51.33
2018-05-27T09:08:24.932Z,48.36
2018-05-27T09:09:25.140Z,46.44
2018-05-27T09:10:25.336Z,43.57
2018-05-27T09:11:25.555Z,43.49
2018-05-27T09:12:25.784Z,42.55
2018-05-27T09:13:26.001Z,42.77
2018-05-27T09:14:26.223Z,43.90
2018-05-27T09:15:26.490Z,44.68
2018-05-27T09:16:26.641Z,47.58
2018-05-27T09:17:26.838Z,45.07
2018-05-27T09:18:27.042Z,42.77
2018-05-27T09:19:27.238Z,41.67
2018-05-27T09:20:27.435Z,43.08
2018-05-27T09:21:27.664Z,43.27
2018-05-27T09:22:27.880Z,46.20
2018-05-27T09:23:28.080Z,47.61
2018-05-27T09:24:28.286Z,43.90
2018-05-27T09:25:28.522Z,45.92
2018-05-27T09:26:28.736Z,47.34
2018-05-27T09:27:28.916Z,43.75
2018-05-27T09:28:29.150Z,45.90
2018-05-27T09:29:29.361Z,43.39
2018-05-27T09:30:29.574Z,44.80
2018-05-27T09:31:29.812Z,41.50
2018-05-27T09:32:30.037Z,43.99
2018-05-27T09:33:30.267Z,44.29
2018-05-27T09:34:30.478Z,45.67
2018-05-27T09:35:30.686Z,49.27
2018-05-27T09:36:30.946Z,49.46
2018-05-27T09:37:31.148Z,46.56
2018-05-27T09:38:31.357Z,44.85
2018-05-27T09:39:31.559Z,44.32
2018-05-27T09:40:31.783Z,47.75
2018-05-27T09:41:32.003Z,45.98
2018-05-27T09:42:32.231Z,48.15
2018-05-27T09:43:32.431Z,48.97
2018-05-27T09:44:32.640Z,49.46
2018-05-27T09:45:32.887Z,53.25
2018-05-27T09:46:33.072Z,50.38
2018-05-27T09:47:33.283Z,48.24
2018-05-27T09:48:33.670Z,45.73
2018-05-27T09:49:33.768Z,46.91
2018-05-27T09:50:33.970Z,48.05
2018-05-27T09:51:34.211Z,46.83
2018-05-27T09:52:34.436Z,44.54
2018-05-27T09:53:35.197Z,44.51
2018-05-27T09:54:34.878Z,44.51
2018-05-27T09:55:35.078Z,45.83
2018-05-27T09:56:35.279Z,47.34
2018-05-27T09:57:35.486Z,44.73
2018-05-27T09:58:35.693Z,47.39
2018-05-27T09:59:35.917Z,46.14
2018-05-27T10:00:36.133Z,43.92
2018-05-27T10:01:36.355Z,43.75
2018-05-27T10:02:36.563Z,42.55
2018-05-27T10:03:36.774Z,42.03
2018-05-27T10:04:37.010Z,42.46
2018-05-27T10:05:37.228Z,43.84
2018-05-27T10:06:37.434Z,46.10
2018-05-27T10:07:37.651Z,46.71
2018-05-27T10:08:37.866Z,46.73
2018-05-27T10:11:09.723Z,47.52
2018-05-27T10:12:09.911Z,46.13
2018-05-27T10:13:10.119Z,45.86
2018-05-27T10:14:10.319Z,47.32
2018-05-27T10:15:10.533Z,46.00
2018-05-27T10:16:10.745Z,46.22
2018-05-27T10:17:10.964Z,44.05
2018-05-27T10:18:11.173Z,45.03
2018-05-27T10:19:11.362Z,46.83
2018-05-27T10:20:11.624Z,44.68
2018-05-27T10:21:11.835Z,44.58
2018-05-27T10:22:12.044Z,42.68
2018-05-27T10:23:12.242Z,43.77
2018-05-27T10:24:12.484Z,42.60
2018-05-27T10:25:12.705Z,44.69
2018-05-27T10:26:12.902Z,42.77
2018-05-27T10:27:13.105Z,41.44
2018-05-27T10:28:13.374Z,43.01
2018-05-27T10:29:13.470Z,42.36
2018-05-27T10:30:13.699Z,42.76
2018-05-27T10:31:13.896Z,44.57
2018-05-27T10:32:14.114Z,45.94
2018-05-27T10:33:14.345Z,44.37
2018-05-27T10:34:14.584Z,44.78
2018-05-27T10:35:14.783Z,44.60
2018-05-27T10:36:15.000Z,44.70
2018-05-27T10:37:15.236Z,44.78
2018-05-27T10:38:15.433Z,43.71
2018-05-27T10:39:15.770Z,43.98
2018-05-27T10:40:15.795Z,46.61
2018-05-27T10:41:16.014Z,47.49
2018-05-27T10:42:16.204Z,47.27
2018-05-27T10:43:16.429Z,48.54
2018-05-27T10:44:16.652Z,48.58
2018-05-27T10:45:16.851Z,49.32
2018-05-27T10:46:17.096Z,48.85
2018-05-27T10:47:17.300Z,49.80
2018-05-27T10:48:17.520Z,50.70
2018-05-27T10:49:17.735Z,51.29
2018-05-27T10:50:17.958Z,48.63
2018-05-27T10:51:18.156Z,51.01
2018-05-27T10:52:18.374Z,50.02
2018-05-27T10:53:18.577Z,47.80
2018-05-27T10:54:18.806Z,48.19
2018-05-27T10:55:19.016Z,49.00
2018-05-27T10:56:19.215Z,52.53
2018-05-27T10:57:19.425Z,49.76
2018-05-27T10:58:19.697Z,48.30
2018-05-27T10:59:19.770Z,50.09
2018-05-27T11:00:19.982Z,50.43
2018-05-27T11:01:20.193Z,49.32
2018-05-27T11:02:20.407Z,49.32
2018-05-27T11:03:20.604Z,49.15
2018-05-27T11:04:20.825Z,50.04
2018-05-27T11:05:21.025Z,46.83
2018-05-27T11:06:21.244Z,47.39
2018-05-27T11:07:21.476Z,45.76
2018-05-27T11:08:21.704Z,44.98
2018-05-27T11:09:21.905Z,48.10
2018-05-27T11:10:22.112Z,46.17
2018-05-27T11:11:22.323Z,46.56
2018-05-27T11:12:22.543Z,44.71
2018-05-27T11:13:22.742Z,44.03
2018-05-27T11:14:22.966Z,44.81
2018-05-27T11:15:23.164Z,46.17
2018-05-27T11:16:23.388Z,46.78
2018-05-27T11:17:23.595Z,46.30
2018-05-27T11:18:23.820Z,45.67
2018-05-27T11:19:24.015Z,45.59
2018-05-27T11:20:24.249Z,43.37
2018-05-27T11:21:24.477Z,42.63
2018-05-27T11:22:24.688Z,42.46
2018-05-27T11:23:24.901Z,44.53
2018-05-27T11:24:25.204Z,44.70
2018-05-27T11:25:25.299Z,43.25
2018-05-27T11:26:25.569Z,44.05
2018-05-27T11:27:25.740Z,45.90
2018-05-27T11:28:25.972Z,44.48
2018-05-27T11:29:26.200Z,42.83
2018-05-27T11:30:26.434Z,43.71
2018-05-27T11:31:26.635Z,43.80
2018-05-27T11:32:26.964Z,42.41
2018-05-27T11:33:27.039Z,42.40
2018-05-27T11:34:27.253Z,42.49
2018-05-27T11:35:27.470Z,42.59
2018-05-27T11:36:27.680Z,42.51
2018-05-27T11:37:27.894Z,43.10
2018-05-27T11:38:28.121Z,43.90
2018-05-27T11:41:00.306Z,41.33
2018-05-27T11:42:00.488Z,39.65
2018-05-27T11:43:00.735Z,40.01
2018-05-27T11:44:00.911Z,40.99
2018-05-27T11:45:01.127Z,42.38
2018-05-27T11:46:01.407Z,40.06
2018-05-27T11:47:01.480Z,40.27
2018-05-27T11:48:01.685Z,43.49
2018-05-27T11:49:01.908Z,40.14
2018-05-27T11:50:02.105Z,40.45
2018-05-27T11:51:02.300Z,40.84
2018-05-27T11:52:02.533Z,41.70
2018-05-27T11:53:02.800Z,41.52
2018-05-27T11:54:02.879Z,42.38
2018-05-27T11:55:03.071Z,43.33
2018-05-27T11:56:03.261Z,40.89
2018-05-27T11:57:03.604Z,41.15
2018-05-27T11:58:03.692Z,42.41
2018-05-27T11:59:03.911Z,41.66
2018-05-27T12:00:04.128Z,41.42
2018-05-27T12:01:04.346Z,41.73
2018-05-27T12:02:04.605Z,42.59
2018-05-27T12:03:04.796Z,43.43
2018-05-27T12:04:05.015Z,43.30
2018-05-27T12:05:05.360Z,43.30
2018-05-27T12:06:05.444Z,44.86
2018-05-27T12:07:05.658Z,44.76
2018-05-27T12:08:05.871Z,44.32
2018-05-27T12:09:06.176Z,44.66
2018-05-27T12:10:06.263Z,43.41
2018-05-27T12:11:06.471Z,45.83
2018-05-27T12:12:06.664Z,42.73
2018-05-27T12:13:06.903Z,42.73
2018-05-27T12:14:07.120Z,46.04
2018-05-27T12:15:07.326Z,42.93
2018-05-27T12:16:07.664Z,42.16
2018-05-27T12:17:07.770Z,41.77
2018-05-27T12:18:08.000Z,42.44
2018-05-27T12:19:08.203Z,42.93
2018-05-27T12:20:08.410Z,45.95
2018-05-27T12:21:08.622Z,44.43
2018-05-27T12:22:08.814Z,43.36
2018-05-27T12:23:09.044Z,43.82
2018-05-27T12:24:09.301Z,42.44
2018-05-27T12:25:09.513Z,43.24
2018-05-27T12:26:09.714Z,42.55
2018-05-27T12:27:09.934Z,41.75
2018-05-27T12:28:10.174Z,40.97
2018-05-27T12:29:10.334Z,41.67
2018-05-27T12:30:10.537Z,42.24
2018-05-27T12:31:10.724Z,40.68
2018-05-27T12:32:10.922Z,40.09
2018-05-27T12:33:11.145Z,40.68
2018-05-27T12:34:11.363Z,40.78
2018-05-27T12:35:11.672Z,41.25
2018-05-27T12:36:11.771Z,42.32
2018-05-27T12:37:11.967Z,43.52
2018-05-27T12:38:12.221Z,46.03
2018-05-27T12:39:12.415Z,48.32
2018-05-27T12:40:12.608Z,48.51
2018-05-27T12:41:12.795Z,43.57
2018-05-27T12:42:13.045Z,46.00
2018-05-27T12:43:13.264Z,43.08
2018-05-27T12:44:13.473Z,42.61
2018-05-27T12:45:13.670Z,42.41
2018-05-27T12:46:13.883Z,41.63
2018-05-27T12:48:46.205Z,41.85
2018-05-27T12:49:46.385Z,42.02
2018-05-27T12:50:46.626Z,44.66
2018-05-27T12:51:46.844Z,46.53
2018-05-27T12:52:47.064Z,44.19
2018-05-27T12:53:47.275Z,40.70
2018-05-27T12:54:47.509Z,42.44
2018-05-27T12:55:47.711Z,42.63
2018-05-27T12:56:47.935Z,43.80
2018-05-27T12:57:48.159Z,41.97
2018-05-27T12:58:48.394Z,42.69
2018-05-27T12:59:48.607Z,43.18
2018-05-27T13:00:48.813Z,44.46
2018-05-27T13:01:49.038Z,42.44
2018-05-27T13:02:49.258Z,45.95
2018-05-27T13:03:49.449Z,42.46
2018-05-27T13:04:49.679Z,42.55
2018-05-27T13:05:49.876Z,42.44
2018-05-27T13:06:50.090Z,42.63
2018-05-27T13:07:50.291Z,42.46
2018-05-27T13:08:50.522Z,42.34
2018-05-27T13:09:50.715Z,43.24
2018-05-27T13:10:50.916Z,42.16
2018-05-27T13:11:51.177Z,44.29
2018-05-27T13:12:51.357Z,45.26
2018-05-27T13:13:51.571Z,44.95
2018-05-27T13:14:51.764Z,44.83
2018-05-27T13:15:52.076Z,44.52
2018-05-27T13:16:52.465Z,44.52
2018-05-27T13:17:52.414Z,43.76
2018-05-27T13:18:52.639Z,44.62
2018-05-27T13:19:52.858Z,43.66
2018-05-27T13:20:53.047Z,43.37
2018-05-27T13:21:53.237Z,44.34
2018-05-27T13:22:53.433Z,44.81
2018-05-27T13:23:53.690Z,46.93
2018-05-27T13:24:53.779Z,48.58
2018-05-27T13:25:54.002Z,49.39